Time;durP1;ratioP1;P1;durP2;ratioP2;P2;SDS_P1;SDS_P2;PMS_P1;PMS_P2;Temp;Humidity;BMP_temperature;BMP_pressure;BME280_temperature;BME280_humidity;BME280_pressure;Samples;Min_cycle;Max_cycle;Signal;HPM_P1;HPM_P2
2022/01/01 00:00:44;;;;;;;8.93;5.18;;;;;;;12.23;73.57;101990.97;5074354;28;20393;-82
2022/01/01 00:03:09;;;;;;;8.88;4.65;;;;;;;12.20;73.89;101992.72;5055579;28;20049;-82
2022/01/01 00:05:35;;;;;;;7.63;5.35;;;;;;;12.17;73.89;101990.13;5047323;28;20182;-82
2022/01/01 00:08:02;;;;;;;11.18;4.97;;;;;;;12.13;73.84;101991.91;5065520;28;20048;-82
2022/01/01 00:10:28;;;;;;;10.32;5.22;;;;;;;12.12;74.50;101992.78;5068102;28;20253;-82
2022/01/01 00:12:53;;;;;;;11.05;4.72;;;;;;;12.17;73.97;101990.13;5073221;28;20119;-82
2022/01/01 00:15:20;;;;;;;8.57;4.85;;;;;;;12.11;74.25;101994.53;5047231;28;20047;-81
2022/01/01 00:17:46;;;;;;;7.18;4.40;;;;;;;12.11;74.19;101988.44;5075984;28;20085;-82
2022/01/01 00:20:12;;;;;;;9.90;4.78;;;;;;;12.09;74.72;101995.44;5053735;28;20696;-82
2022/01/01 00:22:39;;;;;;;9.93;6.15;;;;;;;12.07;74.50;101994.56;5072260;28;20075;-82
2022/01/01 00:25:06;;;;;;;9.57;5.55;;;;;;;12.06;74.85;101990.25;5069251;28;20036;-82
2022/01/01 00:27:32;;;;;;;14.18;5.50;;;;;;;12.01;74.83;101995.47;5071604;28;20467;-82
2022/01/01 00:29:57;;;;;;;9.93;5.78;;;;;;;12.03;74.86;101996.34;5067223;28;20123;-82
2022/01/01 00:32:22;;;;;;;10.35;5.00;;;;;;;12.02;74.48;101993.72;5049210;28;20089;-82
2022/01/01 00:34:50;;;;;;;11.68;5.22;;;;;;;11.99;74.64;102004.16;5055305;28;20048;-82
2022/01/01 00:37:16;;;;;;;11.20;5.30;;;;;;;11.99;74.51;102006.78;5070140;28;20076;-82
2022/01/01 00:39:41;;;;;;;9.32;4.93;;;;;;;11.97;74.54;102009.41;5065710;28;20119;-81
2022/01/01 00:42:07;;;;;;;9.13;5.20;;;;;;;12.02;74.74;102010.22;5068234;28;20032;-82
2022/01/01 00:44:32;;;;;;;10.38;5.00;;;;;;;12.06;74.46;102003.25;5070300;28;20044;-82
2022/01/01 00:46:58;;;;;;;11.93;4.50;;;;;;;12.00;74.51;102003.31;5022087;28;20040;-82
2022/01/01 00:49:24;;;;;;;9.80;4.95;;;;;;;11.98;74.88;101992.88;5047119;28;20135;-82
2022/01/01 00:51:50;;;;;;;8.55;4.90;;;;;;;12.00;74.99;101998.09;5072465;28;20025;-82
2022/01/01 00:54:15;;;;;;;7.68;4.82;;;;;;;11.96;75.16;102004.19;5070442;28;20038;-81
2022/01/01 00:56:41;;;;;;;11.18;4.90;;;;;;;11.96;74.98;101998.97;5065756;28;20042;-82
2022/01/01 00:59:06;;;;;;;11.02;5.30;;;;;;;12.01;74.82;102005.88;5070091;28;20040;-82
2022/01/01 01:01:32;;;;;;;14.55;6.43;;;;;;;12.01;74.68;102000.69;5067798;28;20033;-82
2022/01/01 01:03:58;;;;;;;8.13;4.65;;;;;;;12.06;74.22;102000.66;5072080;28;20040;-82
2022/01/01 01:06:23;;;;;;;8.18;4.68;;;;;;;12.02;74.18;101998.94;5065992;28;20521;-82
2022/01/01 01:08:51;;;;;;;8.40;4.10;;;;;;;12.03;74.27;101995.47;5074491;28;20012;-82
2022/01/01 01:11:17;;;;;;;5.85;4.20;;;;;;;12.02;74.59;101996.34;5033552;28;20040;-82
2022/01/01 01:13:45;;;;;;;8.30;4.55;;;;;;;11.98;74.63;101994.63;5065843;28;20047;-82
2022/01/01 01:16:11;;;;;;;12.20;5.05;;;;;;;11.96;74.80;101998.97;5043007;28;20048;-82
2022/01/01 01:18:36;;;;;;;7.63;4.15;;;;;;;11.95;75.25;101997.25;5073632;28;20072;-82
2022/01/01 01:21:02;;;;;;;11.35;4.60;;;;;;;11.93;74.93;101985.97;5067766;28;20039;-82
2022/01/01 01:23:28;;;;;;;8.30;4.97;;;;;;;11.93;74.83;101996.41;5024053;28;20043;-82
2022/01/01 01:25:55;;;;;;;7.43;4.55;;;;;;;11.93;74.44;101994.66;5044777;28;20115;-82
2022/01/01 01:28:21;;;;;;;9.13;4.72;;;;;;;11.94;74.59;101993.81;5068393;28;20051;-82
2022/01/01 01:30:47;;;;;;;8.75;4.53;;;;;;;11.93;74.31;101992.06;5066330;28;20036;-82
2022/01/01 01:33:12;;;;;;;6.63;4.60;;;;;;;11.98;73.89;102003.28;5042433;28;20036;-81
2022/01/01 01:35:38;;;;;;;9.52;4.60;;;;;;;11.98;74.35;102002.44;5068099;28;20058;-82
2022/01/01 01:38:04;;;;;;;8.80;3.78;;;;;;;11.96;73.85;102002.47;5056687;28;20044;-82
2022/01/01 01:40:30;;;;;;;8.27;3.40;;;;;;;12.05;72.46;101996.31;5046641;28;20040;-82
2022/01/01 01:42:56;;;;;;;8.00;2.95;;;;;;;12.08;72.21;101996.28;5062820;28;20047;-82
2022/01/01 01:45:23;;;;;;;4.32;2.22;;;;;;;12.13;70.54;102002.31;5043366;28;20029;-81
2022/01/01 01:47:50;;;;;;;4.22;2.70;;;;;;;12.13;70.34;102000.59;5045092;28;20393;-82
2022/01/01 01:50:18;;;;;;;6.70;2.67;;;;;;;12.23;70.01;102000.50;5064469;28;20040;-82
2022/01/01 01:52:51;;;;;;;5.65;2.72;;;;;;;12.24;68.64;101999.66;5070430;28;20055;-82
2022/01/01 01:55:17;;;;;;;11.23;2.47;;;;;;;12.24;69.21;102004.84;5068691;28;20045;-82
2022/01/01 01:57:42;;;;;;;5.53;2.22;;;;;;;12.31;68.65;102004.78;5065548;28;20036;-82
2022/01/01 02:00:53;;;;;;;5.15;2.20;;;;;;;12.21;68.62;102007.47;5070379;28;20050;-82
2022/01/01 02:03:14;;;;;;;7.18;2.67;;;;;;;12.20;69.09;102013.56;5066001;28;20040;-82
2022/01/01 02:05:40;;;;;;;4.80;2.88;;;;;;;12.32;68.55;102005.66;5050584;28;20036;-82
2022/01/01 02:08:06;;;;;;;6.70;2.70;;;;;;;12.27;68.49;102004.84;5056862;28;20493;-82
2022/01/01 02:10:33;;;;;;;5.13;2.35;;;;;;;12.20;69.26;102006.63;5036605;28;20400;-82
2022/01/01 02:13:05;;;;;;;12.90;2.65;;;;;;;12.24;69.18;102016.16;5066770;28;20040;-82
2022/01/01 02:18:13;;;;;;;6.75;2.20;;;;;;;12.22;69.37;102003.97;5066634;28;20170;-82
2022/01/01 02:20:40;;;;;;;5.50;1.98;;;;;;;12.15;69.79;102005.78;5043014;28;20041;-82
2022/01/01 02:23:06;;;;;;;8.05;2.10;;;;;;;12.16;70.62;102004.91;5043682;28;20032;-82
2022/01/01 02:25:32;;;;;;;7.38;1.90;;;;;;;12.10;70.55;102011.03;5070256;28;20154;-82
2022/01/01 02:27:58;;;;;;;4.78;1.70;;;;;;;12.09;71.35;102011.06;5069715;28;20123;-82
2022/01/01 02:30:24;;;;;;;4.00;2.05;;;;;;;12.04;71.36;102015.41;5072949;28;20678;-82
2022/01/01 02:32:49;;;;;;;4.38;2.17;;;;;;;11.99;71.86;102023.25;5069872;28;20036;-82
2022/01/01 02:35:18;;;;;;;4.65;2.25;;;;;;;11.99;72.15;102019.78;5066661;28;20143;-82
2022/01/01 02:37:45;;;;;;;8.20;3.05;;;;;;;11.98;71.78;102023.25;5043316;28;20041;-82
2022/01/01 02:40:11;;;;;;;9.88;2.55;;;;;;;11.95;72.30;102026.75;5066016;28;20093;-82
2022/01/01 02:42:39;;;;;;;8.35;2.60;;;;;;;11.92;72.22;102026.78;5068926;28;20051;-82
2022/01/01 02:45:09;;;;;;;6.63;2.78;;;;;;;11.93;72.81;102028.50;5068436;28;20032;-82
2022/01/01 02:47:35;;;;;;;7.55;2.50;;;;;;;11.93;72.29;102035.47;5069512;28;20052;-82
2022/01/01 02:50:02;;;;;;;4.88;2.00;;;;;;;11.93;72.39;102030.25;5066420;28;20508;-82
2022/01/01 02:52:28;;;;;;;8.07;2.88;;;;;;;11.89;71.98;102026.78;5067287;28;20044;-82
2022/01/01 02:54:53;;;;;;;7.07;2.83;;;;;;;11.93;72.35;102018.09;5065551;28;20040;-82
2022/01/01 02:57:18;;;;;;;4.75;2.42;;;;;;;11.88;72.05;102025.09;5067938;28;20090;-82
2022/01/01 02:59:44;;;;;;;5.63;2.55;;;;;;;11.87;72.52;102035.50;5064302;28;20493;-82
2022/01/01 03:02:10;;;;;;;6.03;2.72;;;;;;;11.86;72.03;102025.97;5065915;28;20048;-82
2022/01/01 03:04:35;;;;;;;6.45;2.45;;;;;;;11.84;72.74;102038.97;5047353;28;20025;-82
2022/01/01 03:07:01;;;;;;;6.00;2.58;;;;;;;11.82;72.41;102034.66;5056630;28;20520;-82
2022/01/01 03:09:34;;;;;;;8.52;3.40;;;;;;;11.80;73.01;102037.25;5056215;28;20639;-82
2022/01/01 03:12:01;;;;;;;6.28;2.35;;;;;;;11.83;72.42;102034.66;5076682;28;20028;-82
2022/01/01 03:14:26;;;;;;;6.97;2.45;;;;;;;11.80;72.70;102041.63;5043290;28;20068;-82
2022/01/01 03:16:52;;;;;;;9.43;2.55;;;;;;;11.83;72.88;102047.66;5069159;28;20134;-82
2022/01/01 03:19:17;;;;;;;10.57;2.75;;;;;;;11.84;72.24;102044.19;5068781;28;20043;-82
2022/01/01 03:21:43;;;;;;;8.68;2.33;;;;;;;11.75;72.92;102041.63;5070742;28;20524;-82
2022/01/01 03:24:08;;;;;;;4.00;2.20;;;;;;;11.77;73.03;102041.66;5070444;28;20469;-82
2022/01/01 03:26:34;;;;;;;9.85;2.53;;;;;;;11.76;73.05;102042.50;5068477;28;20537;-82
2022/01/01 03:28:59;;;;;;;7.05;2.33;;;;;;;11.78;72.64;102043.34;5068260;28;21017;-82
2022/01/01 03:31:25;;;;;;;5.15;2.20;;;;;;;11.78;72.90;102045.97;5071938;28;20059;-82
2022/01/01 03:33:52;;;;;;;7.97;2.05;;;;;;;11.74;73.31;102050.31;5069980;28;20041;-82
2022/01/01 03:36:17;;;;;;;6.50;2.00;;;;;;;11.76;72.56;102048.59;5068168;28;20455;-81
2022/01/01 03:38:43;;;;;;;5.05;2.15;;;;;;;11.78;73.28;102036.41;5052662;28;20033;-82
2022/01/01 03:41:08;;;;;;;4.10;1.67;;;;;;;11.83;72.12;102042.44;5073663;28;20054;-82
2022/01/01 03:43:34;;;;;;;6.88;1.88;;;;;;;11.89;71.55;102041.59;5068324;28;20036;-82
2022/01/01 03:45:59;;;;;;;6.40;2.20;;;;;;;11.88;71.81;102043.31;5071277;28;20360;-82
2022/01/01 03:48:25;;;;;;;6.40;2.78;;;;;;;11.92;71.05;102042.41;5048370;28;20510;-82
2022/01/01 03:50:50;;;;;;;4.20;1.70;;;;;;;11.89;71.10;102036.38;5071330;28;20055;-82
2022/01/01 03:53:16;;;;;;;3.30;1.58;;;;;;;11.97;69.80;102040.66;5061913;28;20390;-82
2022/01/01 03:55:42;;;;;;;5.43;1.63;;;;;;;12.00;68.54;102024.13;5070511;28;20123;-81
2022/01/01 03:58:07;;;;;;;4.20;1.45;;;;;;;11.94;70.30;102027.66;5070483;28;20127;-82
2022/01/01 04:00:33;;;;;;;3.90;1.42;;;;;;;11.99;69.71;102028.47;5071739;28;20124;-82
2022/01/01 04:03:07;;;;;;;2.85;1.92;;;;;;;11.97;70.28;102027.63;5039873;28;20111;-82
2022/01/01 04:05:35;;;;;;;3.80;1.40;;;;;;;11.95;70.36;102029.34;5033287;28;20504;-82
2022/01/01 04:08:01;;;;;;;6.93;1.60;;;;;;;11.95;69.77;102031.09;5068050;28;20043;-82
2022/01/01 04:10:26;;;;;;;4.45;1.55;;;;;;;11.92;69.87;102039.78;5075753;28;20032;-82
2022/01/01 04:12:52;;;;;;;6.80;2.63;;;;;;;11.94;70.22;102027.66;5046376;28;20492;-82
2022/01/01 04:15:17;;;;;;;3.75;1.48;;;;;;;11.91;69.87;102022.47;5071397;28;20666;-81
2022/01/01 04:17:43;;;;;;;4.75;1.55;;;;;;;11.92;68.84;102023.31;5046796;28;20124;-82
2022/01/01 04:20:09;;;;;;;7.57;1.70;;;;;;;11.93;69.23;102014.63;5066383;28;21528;-82
2022/01/01 04:22:34;;;;;;;6.78;1.77;;;;;;;11.94;69.66;102009.44;5076097;28;20053;-82
2022/01/01 04:25:00;;;;;;;4.20;1.92;;;;;;;11.90;70.54;102004.22;5065333;28;20064;-82
2022/01/01 04:27:25;;;;;;;4.03;1.30;;;;;;;11.91;70.39;102000.75;5066965;28;21411;-82
2022/01/01 04:29:51;;;;;;;5.03;1.40;;;;;;;11.93;70.21;102010.28;5068445;28;20024;-82
2022/01/01 04:32:18;;;;;;;5.32;1.45;;;;;;;11.88;70.40;102009.47;5052170;28;20127;-82
2022/01/01 04:34:43;;;;;;;3.10;1.42;;;;;;;11.90;69.89;102010.31;5067104;28;20131;-82
2022/01/01 04:37:13;;;;;;;5.35;1.45;;;;;;;11.92;69.78;102005.94;5054884;28;20120;-82
2022/01/01 04:39:40;;;;;;;4.20;1.50;;;;;;;11.94;69.41;102006.81;5048825;28;20032;-82
2022/01/01 04:42:05;;;;;;;5.47;1.45;;;;;;;11.86;69.85;102005.97;5076271;28;20031;-82
2022/01/01 04:44:31;;;;;;;4.15;1.67;;;;;;;11.86;69.52;102020.78;5070081;28;20040;-82
2022/01/01 04:46:57;;;;;;;3.35;1.13;;;;;;;11.87;70.07;102012.94;5045166;28;20033;-82
2022/01/01 04:49:22;;;;;;;4.68;1.50;;;;;;;11.90;70.25;102017.25;5063935;28;20417;-82
2022/01/01 04:51:51;;;;;;;3.58;1.48;;;;;;;11.87;70.08;102018.13;5069882;28;20048;-82
2022/01/01 04:54:17;;;;;;;5.68;1.70;;;;;;;11.89;69.89;102018.16;5068521;28;20500;-82
2022/01/01 04:56:46;;;;;;;7.30;1.40;;;;;;;11.95;69.58;102025.88;5064290;28;20040;-82
2022/01/01 04:59:12;;;;;;;3.35;1.60;;;;;;;11.95;69.67;102026.75;5052204;28;20052;-82
2022/01/01 05:01:39;;;;;;;4.95;1.58;;;;;;;11.96;68.60;102019.81;5065383;28;20416;-82
2022/01/01 05:04:05;;;;;;;5.00;2.00;;;;;;;11.98;67.46;102018.06;5068834;28;20602;-82
2022/01/01 05:06:30;;;;;;;5.97;1.73;;;;;;;12.00;67.73;102022.41;5055651;28;20113;-82
2022/01/01 05:08:56;;;;;;;7.90;2.33;;;;;;;11.90;68.49;102012.03;5064115;28;20162;-82
2022/01/01 05:11:21;;;;;;;5.63;1.65;;;;;;;11.92;68.05;102011.16;5030009;28;20043;-82
2022/01/01 05:13:47;;;;;;;7.15;2.28;;;;;;;11.93;67.90;102019.84;5068174;28;20525;-82
2022/01/01 05:16:16;;;;;;;4.55;1.73;;;;;;;11.91;68.97;102024.19;5068812;28;20036;-82
2022/01/01 05:18:42;;;;;;;6.00;1.33;;;;;;;11.91;68.66;102024.19;5068278;28;20040;-82
2022/01/01 05:21:07;;;;;;;5.90;2.00;;;;;;;11.85;68.83;102026.84;5034527;28;20032;-81
2022/01/01 05:23:33;;;;;;;3.85;1.25;;;;;;;11.92;67.62;102021.56;5069580;28;20278;-82
2022/01/01 05:25:59;;;;;;;4.95;1.40;;;;;;;11.91;67.83;102019.84;5066022;28;20094;-82
2022/01/01 05:28:24;;;;;;;3.95;1.45;;;;;;;11.90;67.98;102015.50;5067899;28;20048;-82
2022/01/01 05:30:50;;;;;;;4.65;1.40;;;;;;;11.89;68.12;102018.97;5069115;28;20410;-82
2022/01/01 05:33:15;;;;;;;6.47;1.75;;;;;;;11.96;68.01;102025.03;5052331;28;20040;-82
2022/01/01 05:35:41;;;;;;;5.22;1.90;;;;;;;11.91;68.43;102032.00;5067303;28;20047;-82
2022/01/01 05:38:07;;;;;;;6.00;2.38;;;;;;;11.84;69.70;102038.97;5066972;28;20058;-82
2022/01/01 05:40:32;;;;;;;6.35;1.42;;;;;;;11.89;68.29;102037.22;5043088;28;20633;-82
2022/01/01 05:42:58;;;;;;;4.95;1.48;;;;;;;11.85;68.76;102039.84;5066882;28;20090;-81
2022/01/01 05:45:23;;;;;;;6.68;1.65;;;;;;;11.90;68.52;102038.09;5045081;28;20051;-82
2022/01/01 05:47:49;;;;;;;4.18;1.40;;;;;;;11.94;67.29;102045.88;5076360;28;20035;-82
2022/01/01 05:50:14;;;;;;;8.75;1.50;;;;;;;11.93;65.63;102049.34;5042488;28;20040;-82
2022/01/01 05:52:40;;;;;;;4.70;1.00;;;;;;;11.86;68.25;102050.25;5070469;28;20416;-82
2022/01/01 05:55:05;;;;;;;2.67;1.23;;;;;;;11.90;66.62;102043.28;5063543;28;20051;-82
2022/01/01 05:57:31;;;;;;;8.77;1.85;;;;;;;11.93;67.14;102045.88;5068695;28;20033;-81
2022/01/01 05:59:57;;;;;;;7.03;1.40;;;;;;;11.92;67.33;102036.31;5070977;28;20036;-82
2022/01/01 06:02:22;;;;;;;4.22;1.55;;;;;;;11.95;66.68;102036.31;5072597;28;20047;-82
2022/01/01 06:04:47;;;;;;;4.68;1.33;;;;;;;11.81;67.38;102036.41;5067892;28;20036;-82
2022/01/01 06:07:13;;;;;;;5.93;1.63;;;;;;;11.84;66.79;102030.31;5052648;28;20490;-82
2022/01/01 06:09:38;;;;;;;6.28;1.60;;;;;;;11.85;67.06;102027.72;5053308;28;20032;-81
2022/01/01 06:12:04;;;;;;;3.33;1.65;;;;;;;11.76;67.33;102037.31;5018964;28;20036;-82
2022/01/01 06:14:30;;;;;;;9.63;1.92;;;;;;;11.87;67.29;102041.56;5046250;28;20105;-82
2022/01/01 06:16:55;;;;;;;5.55;1.42;;;;;;;11.87;67.77;102048.50;5066171;28;20048;-82
2022/01/01 06:19:20;;;;;;;3.58;1.30;;;;;;;11.87;66.10;102038.09;5052025;28;20138;-82
2022/01/01 06:21:46;;;;;;;4.03;1.60;;;;;;;11.81;66.36;102032.94;5067459;28;21409;-82
2022/01/01 06:24:11;;;;;;;6.28;1.20;;;;;;;11.85;65.45;102029.44;5071717;28;20574;-82
2022/01/01 06:26:37;;;;;;;4.63;1.40;;;;;;;11.97;66.18;102037.19;5067051;28;20048;-82
2022/01/01 06:29:02;;;;;;;4.40;1.60;;;;;;;11.93;65.60;102045.88;5054729;28;20401;-82
2022/01/01 06:31:28;;;;;;;4.00;1.55;;;;;;;11.97;65.83;102042.38;5069016;28;20035;-82
2022/01/01 06:33:54;;;;;;;2.55;1.27;;;;;;;11.94;65.33;102050.22;5044356;28;20060;-81
2022/01/01 06:36:19;;;;;;;5.68;1.58;;;;;;;11.94;66.63;102051.09;5066334;28;20032;-81
2022/01/01 06:38:45;;;;;;;2.70;1.58;;;;;;;11.90;66.53;102054.56;5042127;28;20040;-82
2022/01/01 06:41:11;;;;;;;5.90;1.70;;;;;;;11.91;65.95;102056.31;5041561;28;20087;-82
2022/01/01 06:43:38;;;;;;;7.30;1.73;;;;;;;11.91;66.37;102061.53;5062998;28;20041;-82
2022/01/01 06:46:05;;;;;;;6.22;1.88;;;;;;;11.87;66.98;102066.75;5043435;28;20041;-82
2022/01/01 06:48:31;;;;;;;7.25;1.67;;;;;;;11.90;66.15;102065.00;5052856;28;20036;-81
2022/01/01 06:50:57;;;;;;;3.05;1.25;;;;;;;11.98;65.53;102070.13;5055058;28;20417;-82
2022/01/01 06:53:22;;;;;;;3.88;1.20;;;;;;;11.97;65.49;102076.25;5063104;28;20037;-82
2022/01/01 06:55:48;;;;;;;2.95;1.48;;;;;;;11.93;66.47;102088.41;5063551;28;20055;-81
2022/01/01 06:58:13;;;;;;;5.60;1.77;;;;;;;11.93;66.20;102093.63;5053877;28;20051;-81
2022/01/01 07:00:39;;;;;;;4.63;1.40;;;;;;;11.88;66.63;102098.00;5041590;28;20045;-82
2022/01/01 07:03:06;;;;;;;5.40;1.73;;;;;;;11.98;65.17;102094.44;5037151;28;20111;-82
2022/01/01 07:05:31;;;;;;;2.88;1.20;;;;;;;12.02;64.41;102093.56;5065808;28;20044;-82
2022/01/01 07:07:57;;;;;;;2.53;1.23;;;;;;;12.00;65.94;102100.53;5070764;28;20038;-82
2022/01/01 07:10:23;;;;;;;2.50;1.25;;;;;;;11.89;65.31;102104.06;5067452;28;20066;-81
2022/01/01 07:12:48;;;;;;;3.70;1.52;;;;;;;11.93;67.11;102105.75;5027644;28;20037;-82
2022/01/01 07:15:15;;;;;;;2.35;1.27;;;;;;;11.86;67.16;102104.09;5066053;28;20051;-81
2022/01/01 07:17:41;;;;;;;5.32;1.35;;;;;;;11.81;67.95;102106.69;5042852;28;20040;-81
2022/01/01 07:20:08;;;;;;;6.88;2.38;;;;;;;11.81;67.46;102104.09;5052419;28;20251;-82
2022/01/01 07:22:44;;;;;;;5.28;1.58;;;;;;;11.86;66.93;102104.09;5066824;28;20504;-82
2022/01/01 07:25:11;;;;;;;4.47;1.80;;;;;;;11.87;65.69;102095.38;5064805;28;20043;-81
2022/01/01 07:27:37;;;;;;;4.65;1.42;;;;;;;11.88;66.36;102097.13;5068080;28;20033;-82
2022/01/01 07:30:05;;;;;;;5.95;1.70;;;;;;;11.90;65.86;102103.19;5069200;28;20035;-82
2022/01/01 07:32:31;;;;;;;7.00;1.40;;;;;;;11.85;66.41;102113.63;5071188;28;20043;-82
2022/01/01 07:34:56;;;;;;;4.43;1.40;;;;;;;11.83;67.79;102119.72;5063938;28;20037;-82
2022/01/01 07:37:21;;;;;;;5.18;1.50;;;;;;;11.81;66.33;102109.28;5068830;28;20051;-82
2022/01/01 07:39:47;;;;;;;6.53;1.40;;;;;;;11.86;66.63;102117.94;5047176;28;20040;-81
2022/01/01 07:42:12;;;;;;;4.55;1.13;;;;;;;11.76;67.74;102113.66;5054704;28;20032;-81
2022/01/01 07:44:39;;;;;;;3.75;1.50;;;;;;;11.76;67.31;102113.66;5029623;28;20036;-82
2022/01/01 07:47:05;;;;;;;4.45;1.75;;;;;;;11.79;66.40;102110.19;5067151;28;20044;-77
2022/01/01 07:49:30;;;;;;;3.33;1.20;;;;;;;11.86;65.95;102114.50;5053982;28;20036;-82
2022/01/01 07:51:56;;;;;;;7.43;1.35;;;;;;;11.89;65.97;102120.53;5074716;28;20045;-83
2022/01/01 07:54:21;;;;;;;3.38;1.65;;;;;;;11.95;65.66;102117.03;5068138;28;20504;-83
2022/01/01 07:56:47;;;;;;;6.43;1.55;;;;;;;11.92;65.67;102122.25;5063057;28;20049;-83
2022/01/01 07:59:12;;;;;;;4.32;1.50;;;;;;;11.80;66.09;102123.19;5037407;28;20405;-83
2022/01/01 08:01:38;;;;;;;3.05;1.50;;;;;;;11.79;66.53;102125.81;5055529;28;20040;-83
2022/01/01 08:04:04;;;;;;;4.22;1.33;;;;;;;11.77;67.40;102132.75;5046499;28;20568;-83
2022/01/01 08:06:30;;;;;;;4.05;1.35;;;;;;;11.83;66.93;102133.56;5046182;28;20093;-83
2022/01/01 08:08:55;;;;;;;2.63;1.20;;;;;;;11.81;66.09;102124.06;5058791;28;20111;-83
2022/01/01 08:11:21;;;;;;;6.38;1.50;;;;;;;11.89;66.67;102120.53;5062993;28;20147;-83
2022/01/01 08:13:46;;;;;;;2.65;1.08;;;;;;;11.89;65.51;102117.94;5066291;28;20039;-83
2022/01/01 08:16:12;;;;;;;4.85;1.55;;;;;;;11.86;65.38;102117.09;5047243;28;20044;-83
2022/01/01 08:18:37;;;;;;;3.78;1.40;;;;;;;11.89;66.14;102123.13;5046764;28;20505;-83
2022/01/01 08:21:03;;;;;;;4.15;1.42;;;;;;;11.92;65.27;102120.53;5070869;28;20044;-83
2022/01/01 08:23:28;;;;;;;4.15;1.33;;;;;;;11.91;65.48;102121.41;5067309;28;20119;-83
2022/01/01 08:25:56;;;;;;;5.32;1.70;;;;;;;11.95;65.57;102117.03;5068056;28;20524;-83
2022/01/01 08:28:21;;;;;;;4.07;1.20;;;;;;;12.00;64.99;102116.16;5055497;28;20045;-83
2022/01/01 08:30:47;;;;;;;5.82;1.60;;;;;;;11.97;64.68;102108.38;5067042;28;20527;-83
2022/01/01 08:33:12;;;;;;;4.20;1.45;;;;;;;11.99;64.68;102105.72;5045590;28;20505;-83
2022/01/01 08:35:38;;;;;;;2.15;1.02;;;;;;;12.01;65.13;102104.84;5069339;28;20105;-83
2022/01/01 08:38:04;;;;;;;5.07;1.08;;;;;;;12.03;65.42;102105.72;5069899;28;20036;-82
2022/01/01 08:40:31;;;;;;;4.20;1.40;;;;;;;12.07;64.68;102115.22;5072081;28;20047;-83
2022/01/01 08:42:57;;;;;;;3.40;1.55;;;;;;;12.10;64.48;102103.91;5065338;28;20044;-83
2022/01/01 08:45:23;;;;;;;2.78;1.13;;;;;;;12.06;64.95;102099.63;5070694;28;20024;-82
2022/01/01 08:47:49;;;;;;;3.92;1.33;;;;;;;12.06;65.92;102113.53;5066665;28;20110;-83
2022/01/01 08:50:14;;;;;;;3.67;1.58;;;;;;;12.10;65.08;102102.19;5055305;28;20419;-84
2022/01/01 08:52:40;;;;;;;4.20;1.83;;;;;;;12.12;65.20;102104.81;5044908;28;20638;-83
2022/01/01 08:55:07;;;;;;;3.83;1.58;;;;;;;12.15;64.50;102102.19;5065225;28;20451;-86
2022/01/01 08:57:33;;;;;;;4.03;1.38;;;;;;;12.20;64.85;102104.75;5040459;28;20031;-84
2022/01/01 09:00:00;;;;;;;3.40;1.27;;;;;;;12.21;64.22;102107.34;5067962;28;20028;-84
2022/01/01 09:02:25;;;;;;;3.00;1.75;;;;;;;12.25;64.94;102103.81;5066397;28;20109;-84
2022/01/01 09:04:51;;;;;;;3.75;1.52;;;;;;;12.25;65.12;102111.66;5069971;28;20028;-81
2022/01/01 09:07:17;;;;;;;6.07;1.35;;;;;;;12.28;65.11;102109.03;5062520;28;20028;-82
2022/01/01 09:09:43;;;;;;;4.85;1.55;;;;;;;12.23;66.67;102110.81;5037668;28;20036;-84
2022/01/01 09:12:10;;;;;;;3.80;1.52;;;;;;;12.21;66.12;102103.88;5044980;28;20119;-80
2022/01/01 09:14:36;;;;;;;3.65;1.67;;;;;;;12.19;66.01;102101.25;5068994;28;20043;-80
2022/01/01 09:17:04;;;;;;;3.80;1.60;;;;;;;12.29;65.26;102097.72;5071486;28;20561;-80
2022/01/01 09:19:30;;;;;;;5.43;2.30;;;;;;;12.29;64.30;102097.72;5071778;28;20149;-81
2022/01/01 09:21:55;;;;;;;5.03;1.45;;;;;;;12.30;65.17;102104.69;5064126;28;20068;-81
2022/01/01 09:24:21;;;;;;;4.15;1.45;;;;;;;12.30;64.58;102098.59;5072431;28;20049;-81
2022/01/01 09:26:47;;;;;;;2.63;1.20;;;;;;;12.25;64.42;102105.56;5069057;28;20063;-81
2022/01/01 09:29:12;;;;;;;3.00;1.42;;;;;;;12.28;64.56;102111.63;5070789;28;20123;-81
2022/01/01 09:31:40;;;;;;;4.88;1.30;;;;;;;12.37;64.12;102111.56;5069138;28;20040;-81
2022/01/01 09:34:05;;;;;;;3.03;1.48;;;;;;;12.30;65.01;102111.63;5070793;28;20040;-81
2022/01/01 09:36:32;;;;;;;6.70;2.25;;;;;;;12.17;65.21;102110.84;5067787;28;20114;-82
2022/01/01 09:38:58;;;;;;;3.95;1.70;;;;;;;12.32;65.43;102107.25;5068056;28;20036;-81
2022/01/01 09:41:23;;;;;;;2.70;1.20;;;;;;;12.35;64.15;102102.91;5061483;28;20841;-82
2022/01/01 09:43:53;;;;;;;3.53;1.15;;;;;;;12.47;63.43;102110.63;5062776;28;20031;-82
2022/01/01 09:46:18;;;;;;;2.17;1.02;;;;;;;12.41;64.15;102115.88;5046407;28;20035;-82
2022/01/01 09:48:44;;;;;;;5.47;1.40;;;;;;;12.34;64.15;102114.19;5057206;28;20067;-82
2022/01/01 09:51:10;;;;;;;2.53;1.08;;;;;;;12.40;64.94;102110.66;5051907;28;20036;-82
2022/01/01 09:53:35;;;;;;;4.35;1.48;;;;;;;12.47;64.29;102112.38;5070797;28;20130;-82
2022/01/01 09:56:03;;;;;;;2.28;1.10;;;;;;;12.47;64.45;102110.63;5069087;28;20039;-81
2022/01/01 09:58:31;;;;;;;2.25;1.10;;;;;;;12.53;64.62;102108.00;5044059;28;20512;-81
2022/01/01 10:00:58;;;;;;;5.10;1.73;;;;;;;12.50;63.54;102109.75;5064243;28;20040;-82
2022/01/01 10:03:50;;;;;;;3.53;1.13;;;;;;;12.41;65.02;102112.41;5065450;28;20028;-81
2022/01/01 10:06:18;;;;;;;1.98;1.30;;;;;;;12.40;64.65;102118.50;5062683;28;20132;-81
2022/01/01 10:09:03;;;;;;;2.90;1.40;;;;;;;12.43;64.72;102118.47;5062985;28;20028;-81
2022/01/01 10:11:36;;;;;;;6.57;1.50;;;;;;;12.40;64.66;102121.09;5062696;28;20036;-81
2022/01/01 10:14:06;;;;;;;5.07;1.90;;;;;;;12.47;64.67;102128.00;5051457;28;20052;-81
2022/01/01 10:16:32;;;;;;;2.90;1.52;;;;;;;12.46;64.99;102126.25;5058322;28;20052;-81
2022/01/01 10:18:57;;;;;;;2.78;1.33;;;;;;;12.42;66.17;102119.38;5039841;28;20076;-81
2022/01/01 10:21:29;;;;;;;2.95;1.10;;;;;;;12.40;65.37;102121.09;5027187;28;20480;-81
2022/01/01 10:23:57;;;;;;;2.95;1.20;;;;;;;12.42;65.02;102114.16;5057475;28;20027;-82
2022/01/01 10:29:30;;;;;;;4.60;1.67;;;;;;;12.43;65.61;102105.44;5062726;28;20451;-81
2022/01/01 10:32:08;;;;;;;2.72;1.20;;;;;;;12.45;65.18;102094.13;5064248;28;20036;-82
2022/01/01 10:34:36;;;;;;;2.58;1.50;;;;;;;12.48;64.79;102093.25;5037757;28;20037;-82
2022/01/01 10:37:05;;;;;;;5.30;1.23;;;;;;;12.48;65.03;102080.22;5066335;28;20122;-82
2022/01/01 10:39:30;;;;;;;3.50;1.35;;;;;;;12.45;65.53;102083.69;5065111;28;20065;-81
2022/01/01 10:41:59;;;;;;;2.13;1.35;;;;;;;12.51;64.40;102075.00;5028119;28;20490;-81
2022/01/01 10:44:39;;;;;;;3.15;1.40;;;;;;;12.44;65.40;102070.69;5064493;28;20028;-82
2022/01/01 10:47:31;;;;;;;3.30;1.50;;;;;;;12.38;65.55;102063.78;5044470;28;20431;-83
2022/01/01 10:50:14;;;;;;;3.95;1.05;;;;;;;12.31;65.88;102064.72;5053868;28;20046;-77
2022/01/01 10:52:45;;;;;;;2.60;1.23;;;;;;;12.38;65.97;102075.94;5042883;28;21495;-84
2022/01/01 10:55:12;;;;;;;3.03;1.13;;;;;;;12.52;65.13;102074.09;5059129;28;20129;-77
2022/01/01 10:57:39;;;;;;;3.28;1.52;;;;;;;12.46;65.52;102082.84;5042974;28;20044;-77
2022/01/01 11:00:08;;;;;;;3.55;1.40;;;;;;;12.39;66.32;102082.91;5038991;28;20033;-77
2022/01/01 11:02:35;;;;;;;2.38;1.30;;;;;;;12.48;65.44;102068.03;5043865;28;20468;-77
2022/01/01 11:05:03;;;;;;;3.63;1.40;;;;;;;12.49;65.35;102068.91;5041636;28;20033;-77
2022/01/01 11:07:29;;;;;;;3.40;1.30;;;;;;;12.42;65.77;102062.88;5050854;28;20045;-77
2022/01/01 11:09:56;;;;;;;3.13;1.40;;;;;;;12.48;66.04;102054.16;5024901;28;20611;-77
2022/01/01 11:12:24;;;;;;;4.10;1.75;;;;;;;12.49;65.97;102046.31;5046252;28;20037;-77
2022/01/01 11:14:53;;;;;;;3.92;1.30;;;;;;;12.53;65.64;102045.47;5017037;28;20037;-77
2022/01/01 11:17:19;;;;;;;2.88;1.27;;;;;;;12.50;65.58;102052.41;5043581;28;20044;-77
2022/01/01 11:19:45;;;;;;;3.13;1.10;;;;;;;12.51;66.02;102047.16;5020590;28;20507;-78
2022/01/01 11:22:12;;;;;;;2.72;1.30;;;;;;;12.55;65.64;102048.03;5046217;28;20079;-77
2022/01/01 11:24:41;;;;;;;2.40;1.17;;;;;;;12.55;66.18;102048.91;5039965;28;20159;-77
2022/01/01 11:27:07;;;;;;;3.03;1.60;;;;;;;12.53;65.63;102042.84;5027414;28;20441;-77